createdAt,value
2019-01-24T00:03:05.743Z,100276.06
2019-01-24T00:07:10.907Z,100283.78
2019-01-24T00:11:15.884Z,100285.98
2019-01-24T00:15:20.774Z,100292.14
2019-01-24T00:19:25.670Z,100299.64
2019-01-24T00:23:30.571Z,100299.38
2019-01-24T00:27:35.501Z,100301.83
2019-01-24T00:31:40.380Z,100316.33
2019-01-24T00:35:45.325Z,100313.76
2019-01-24T00:39:50.225Z,100317.06
2019-01-24T00:43:55.162Z,100317.66
2019-01-24T00:48:00.078Z,100320.85
2019-01-24T00:52:05.273Z,100334.12
2019-01-24T00:56:10.163Z,100339.14
2019-01-24T01:00:19.152Z,100336.69
2019-01-24T01:04:29.688Z,100344.32
2019-01-24T01:08:30.677Z,100339.89
2019-01-24T01:12:35.574Z,100342.47
2019-01-24T01:16:40.456Z,100348.37
2019-01-24T01:20:45.373Z,100356.94
2019-01-24T01:24:50.365Z,100355.23
2019-01-24T01:28:55.369Z,100360.88
2019-01-24T01:33:00.256Z,100365.41
2019-01-24T01:37:05.209Z,100365.55
2019-01-24T01:41:10.092Z,100367.61
2019-01-24T01:45:20.939Z,100369.08
2019-01-24T01:49:25.823Z,100373.13
2019-01-24T01:53:30.749Z,100371.78
2019-01-24T01:57:35.626Z,100372.28
2019-01-24T02:01:40.545Z,100379.66
2019-01-24T02:05:45.531Z,100389.59
2019-01-24T02:09:50.457Z,100388.25
2019-01-24T02:13:55.356Z,100395.58
2019-01-24T02:18:00.348Z,100389.34
2019-01-24T02:22:05.274Z,100394.23
2019-01-24T02:26:10.164Z,100399.02
2019-01-24T02:30:21.842Z,100401.59
2019-01-24T02:34:26.741Z,100405.27
2019-01-24T02:38:32.043Z,100405.27
2019-01-24T02:42:36.934Z,100404.06
2019-01-24T02:46:42.143Z,100411.05
2019-01-24T02:50:47.040Z,100415.83
2019-01-24T02:54:51.980Z,100408.34
2019-01-24T02:58:56.868Z,100415.09
2019-01-24T03:03:01.862Z,100417.30
2019-01-24T03:07:06.759Z,100410.90
2019-01-24T03:11:12.028Z,100408.33
2019-01-24T03:15:19.027Z,100401.97
2019-01-24T03:19:24.308Z,100407.86
2019-01-24T03:23:29.202Z,100419.00
2019-01-24T03:27:34.103Z,100413.37
2019-01-24T03:31:39.101Z,100413.98
2019-01-24T03:35:44.006Z,100422.78
2019-01-24T03:39:48.913Z,100421.20
2019-01-24T03:43:53.808Z,100428.80
2019-01-24T03:47:59.027Z,100426.95
2019-01-24T03:52:03.918Z,100421.45
2019-01-24T03:56:08.835Z,100432.36
2019-01-24T04:00:20.339Z,100435.28
2019-01-24T04:04:25.263Z,100436.14
2019-01-24T04:08:30.246Z,100437.98
2019-01-24T04:12:35.177Z,100446.58
2019-01-24T04:16:40.055Z,100440.18
2019-01-24T04:20:45.333Z,100447.54
2019-01-24T04:24:50.365Z,100452.05
2019-01-24T04:28:55.363Z,100454.05
2019-01-24T04:33:00.273Z,100466.53
2019-01-24T04:37:05.232Z,100468.89
2019-01-24T04:41:10.132Z,100475.62
2019-01-24T04:45:16.168Z,100469.23
2019-01-24T04:49:21.372Z,100472.66
2019-01-24T04:53:26.348Z,100472.28
2019-01-24T04:57:31.249Z,100480.37
2019-01-24T05:01:36.141Z,100491.27
2019-01-24T05:05:41.076Z,100487.34
2019-01-24T05:09:45.950Z,100493.97
2019-01-24T05:13:50.888Z,100498.09
2019-01-24T05:17:55.793Z,100504.98
2019-01-24T05:22:00.718Z,100503.25
2019-01-24T05:26:05.621Z,100502.29
2019-01-24T05:30:15.511Z,100514.42
2019-01-24T05:34:20.504Z,100509.77
2019-01-24T05:38:25.407Z,100519.97
2019-01-24T05:42:30.448Z,100512.11
2019-01-24T05:46:35.363Z,100519.71
2019-01-24T05:50:40.358Z,100513.81
2019-01-24T05:54:45.272Z,100507.84
2019-01-24T05:58:50.642Z,100502.28
2019-01-24T06:02:55.582Z,100515.61
2019-01-24T06:07:00.531Z,100517.41
2019-01-24T06:11:05.430Z,100521.27
2019-01-24T06:15:13.257Z,100510.94
2019-01-24T06:19:18.435Z,100508.71
2019-01-24T06:23:23.590Z,100511.06
2019-01-24T06:27:28.488Z,100521.28
2019-01-24T06:31:33.480Z,100519.31
2019-01-24T06:35:38.641Z,100536.21
2019-01-24T06:39:43.942Z,100540.26
2019-01-24T06:43:48.904Z,100539.60
2019-01-24T06:47:53.812Z,100551.05
2019-01-24T06:51:58.821Z,100554.30
2019-01-24T06:56:03.835Z,100558.25
2019-01-24T07:00:13.379Z,100570.09
2019-01-24T07:04:18.326Z,100570.81
2019-01-24T07:08:23.231Z,100592.06
2019-01-24T07:12:28.192Z,100590.20
2019-01-24T07:16:33.114Z,100600.20
2019-01-24T07:20:38.096Z,100608.44
2019-01-24T07:24:43.038Z,100611.97
2019-01-24T07:28:47.948Z,100613.16
2019-01-24T07:32:52.890Z,100617.83
2019-01-24T07:36:57.875Z,100633.31
2019-01-24T07:41:02.942Z,100642.88
2019-01-24T07:45:18.165Z,100642.47
2019-01-24T07:49:23.119Z,100650.23
2019-01-24T07:53:28.055Z,100662.53
2019-01-24T07:57:32.967Z,100667.86
2019-01-24T08:01:37.937Z,100666.12
2019-01-24T08:05:42.874Z,100675.41
2019-01-24T08:09:47.794Z,100678.45
2019-01-24T08:13:52.699Z,100687.42
2019-01-24T08:17:57.723Z,100692.82
2019-01-24T08:22:02.673Z,100698.45
2019-01-24T08:26:07.854Z,100703.74
2019-01-24T08:30:30.960Z,100700.30
2019-01-24T08:34:35.866Z,100702.17
2019-01-24T08:38:41.114Z,100699.06
2019-01-24T08:42:46.878Z,100697.11
2019-01-24T08:46:51.858Z,100699.80
2019-01-24T08:50:56.794Z,100698.95
2019-01-24T08:55:01.717Z,100699.64
2019-01-24T08:59:06.705Z,100685.50
2019-01-24T09:03:13.455Z,100692.95
2019-01-24T09:07:18.459Z,100688.77
2019-01-24T09:11:23.363Z,100693.83
2019-01-24T09:15:29.266Z,100686.68
2019-01-24T09:19:34.373Z,100677.67
2019-01-24T09:23:39.305Z,100673.40
2019-01-24T09:27:44.269Z,100678.91
2019-01-24T09:31:49.199Z,100681.32
2019-01-24T09:35:54.115Z,100684.59
2019-01-24T09:39:59.909Z,100692.69
2019-01-24T09:44:04.804Z,100691.84
2019-01-24T09:48:10.204Z,100698.14
2019-01-24T09:52:15.689Z,100700.97
2019-01-24T09:56:20.712Z,100701.36
2019-01-24T10:00:28.896Z,100707.35
2019-01-24T10:04:33.806Z,100711.45
2019-01-24T10:08:38.709Z,100722.48
2019-01-24T10:12:43.726Z,100718.86
2019-01-24T10:16:48.727Z,100722.72
2019-01-24T10:20:53.623Z,100732.00
2019-01-24T10:24:58.807Z,100731.33
2019-01-24T10:29:03.699Z,100738.70
2019-01-24T10:33:08.895Z,100736.44
2019-01-24T10:37:13.879Z,100743.14
2019-01-24T10:41:18.796Z,100739.58
2019-01-24T10:45:23.705Z,100730.88
2019-01-24T10:49:28.793Z,100741.63
2019-01-24T10:53:33.697Z,100741.17
2019-01-24T10:57:38.759Z,100740.39
2019-01-24T11:01:43.656Z,100741.91
2019-01-24T11:05:48.858Z,100738.05
2019-01-24T11:09:53.945Z,100733.28
2019-01-24T11:13:58.957Z,100748.38
2019-01-24T11:18:04.178Z,100743.75
2019-01-24T11:22:09.092Z,100747.03
2019-01-24T11:26:14.321Z,100748.09
2019-01-24T11:30:25.341Z,100755.19
2019-01-24T11:34:30.591Z,100750.78
2019-01-24T11:38:35.596Z,100757.77
2019-01-24T11:42:40.587Z,100762.77
2019-01-24T11:46:45.468Z,100759.47
2019-01-24T11:50:51.206Z,100754.78
2019-01-24T11:54:56.181Z,100755.36
2019-01-24T11:59:01.385Z,100750.62
2019-01-24T12:03:06.879Z,100754.16
2019-01-24T12:07:11.937Z,100749.58
2019-01-24T12:11:16.829Z,100751.63
2019-01-24T12:15:22.831Z,100754.11
2019-01-24T12:19:27.734Z,100760.52
2019-01-24T12:23:32.674Z,100752.30
2019-01-24T12:27:37.674Z,100745.26
2019-01-24T12:31:42.580Z,100759.50
2019-01-24T12:35:47.846Z,100759.52
2019-01-24T12:39:52.744Z,100749.89
2019-01-24T12:43:57.672Z,100759.80
2019-01-24T12:48:02.680Z,100759.28
2019-01-24T12:52:07.645Z,100760.34
2019-01-24T12:56:12.634Z,100756.18
2019-01-24T13:00:24.134Z,100756.30
2019-01-24T13:04:29.133Z,100752.13
2019-01-24T13:08:34.440Z,100745.14
2019-01-24T13:12:39.472Z,100733.31
2019-01-24T13:16:44.431Z,100735.27
2019-01-24T13:20:49.384Z,100752.42
2019-01-24T13:24:54.343Z,100757.38
2019-01-24T13:28:59.358Z,100763.50
2019-01-24T13:33:05.316Z,100766.16
2019-01-24T13:37:10.276Z,100767.60
2019-01-24T13:41:15.469Z,100770.66
2019-01-24T13:45:26.708Z,100773.65
2019-01-24T13:49:31.613Z,100778.34
2019-01-24T13:53:36.835Z,100782.72
2019-01-24T13:57:41.832Z,100787.69
2019-01-24T14:01:46.803Z,100777.03
2019-01-24T14:05:51.722Z,100778.11
2019-01-24T14:09:56.693Z,100775.13
2019-01-24T14:14:01.861Z,100774.70
2019-01-24T14:18:07.258Z,100781.19
2019-01-24T14:22:12.164Z,100786.77
2019-01-24T14:26:17.078Z,100774.45
2019-01-24T14:30:25.811Z,100789.91
2019-01-24T14:34:30.716Z,100788.94
2019-01-24T14:38:35.712Z,100787.28
2019-01-24T14:42:40.631Z,100793.70
2019-01-24T14:46:45.561Z,100787.06
2019-01-24T14:50:50.484Z,100790.05
2019-01-24T14:54:55.404Z,100790.06
2019-01-24T14:59:00.320Z,100796.39
2019-01-24T15:03:05.407Z,100800.97
2019-01-24T15:07:10.336Z,100810.96
2019-01-24T15:11:15.284Z,100811.62
2019-01-24T15:15:20.592Z,100821.10
2019-01-24T15:19:25.506Z,100835.52
2019-01-24T15:23:30.399Z,100836.36
2019-01-24T15:27:35.313Z,100830.78
2019-01-24T15:31:40.213Z,100843.81
2019-01-24T15:35:45.132Z,100840.84
2019-01-24T15:39:50.059Z,100838.11
2019-01-24T15:43:54.962Z,100838.58
2019-01-24T15:47:59.873Z,100842.40
2019-01-24T15:52:04.888Z,100845.06
2019-01-24T15:56:09.820Z,100846.50
2019-01-24T16:00:21.103Z,100854.43
2019-01-24T16:04:26.017Z,100853.94
2019-01-24T16:08:30.926Z,100847.17
2019-01-24T16:12:35.860Z,100852.47
2019-01-24T16:16:40.818Z,100852.76
2019-01-24T16:20:45.728Z,100866.14
2019-01-24T16:24:50.630Z,100873.20
2019-01-24T16:28:55.563Z,100878.77
2019-01-24T16:33:00.508Z,100869.09
2019-01-24T16:37:05.414Z,100868.20
2019-01-24T16:41:10.401Z,100872.98
2019-01-24T16:45:21.452Z,100877.18
2019-01-24T16:49:26.374Z,100871.43
2019-01-24T16:53:31.290Z,100872.28
2019-01-24T16:57:36.285Z,100874.88
2019-01-24T17:01:41.165Z,100874.84
2019-01-24T17:05:46.153Z,100881.73
2019-01-24T17:09:51.081Z,100881.44
2019-01-24T17:13:56.028Z,100886.41
2019-01-24T17:18:00.917Z,100891.66
2019-01-24T17:22:05.954Z,100897.38
2019-01-24T17:26:10.865Z,100899.65
2019-01-24T17:30:19.837Z,100896.77
2019-01-24T17:34:24.781Z,100904.27
2019-01-24T17:38:29.696Z,100910.47
2019-01-24T17:42:34.609Z,100902.45
2019-01-24T17:46:39.689Z,100918.53
2019-01-24T17:50:44.587Z,100917.61
2019-01-24T17:54:49.555Z,100918.86
2019-01-24T17:58:54.860Z,100929.44
2019-01-24T18:02:59.859Z,100928.94
2019-01-24T18:07:04.810Z,100931.14
2019-01-24T18:11:09.822Z,100939.66
2019-01-24T18:15:19.150Z,100938.70
2019-01-24T18:19:24.049Z,100949.64
2019-01-24T18:23:28.983Z,100952.55
2019-01-24T18:27:33.888Z,100960.02
2019-01-24T18:31:38.868Z,100962.35
2019-01-24T18:35:43.838Z,100964.23
2019-01-24T18:39:48.844Z,100969.00
2019-01-24T18:43:54.241Z,100965.16
2019-01-24T18:47:59.229Z,100982.92
2019-01-24T18:52:04.218Z,100971.09
2019-01-24T18:56:09.316Z,100979.44
2019-01-24T19:00:19.516Z,100981.78
2019-01-24T19:04:24.641Z,100981.46
2019-01-24T19:08:29.565Z,100986.80
2019-01-24T19:12:34.507Z,100988.04
2019-01-24T19:16:39.537Z,100986.30
2019-01-24T19:20:44.793Z,100992.05
2019-01-24T19:24:49.719Z,100988.25
2019-01-24T19:28:54.713Z,100996.88
2019-01-24T19:33:00.122Z,101003.20
2019-01-24T19:37:05.123Z,101000.61
2019-01-24T19:41:10.154Z,101009.70
2019-01-24T19:45:18.452Z,101000.30
2019-01-24T19:49:23.423Z,101007.00
2019-01-24T19:53:28.447Z,101008.82
2019-01-24T19:57:33.372Z,100994.57
2019-01-24T20:01:38.659Z,101001.54
2019-01-24T20:05:43.684Z,101000.30
2019-01-24T20:09:48.615Z,101007.15
2019-01-24T20:13:53.524Z,100993.44
2019-01-24T20:17:58.732Z,101000.26
2019-01-24T20:22:03.665Z,100998.30
2019-01-24T20:26:08.599Z,101013.86
2019-01-24T20:30:22.542Z,101010.66
2019-01-24T20:34:27.626Z,101002.56
2019-01-24T20:38:32.691Z,101008.18
2019-01-24T20:42:37.726Z,101008.36
2019-01-24T20:46:42.826Z,101014.11
2019-01-24T20:50:48.382Z,101022.70
2019-01-24T20:54:53.623Z,101019.19
2019-01-24T20:58:58.681Z,101008.89
2019-01-24T21:03:03.686Z,101015.03
2019-01-24T21:07:08.895Z,101013.67
2019-01-24T21:11:13.899Z,101018.55
2019-01-24T21:15:19.685Z,101015.22
2019-01-24T21:19:25.098Z,101020.51
2019-01-24T21:23:31.631Z,101024.34
2019-01-24T21:27:36.590Z,101028.64
2019-01-24T21:31:41.692Z,101022.77
2019-01-24T21:35:47.103Z,101029.99
2019-01-24T21:39:52.102Z,101033.02
2019-01-24T21:43:57.066Z,101025.62
2019-01-24T21:48:02.137Z,101023.41
2019-01-24T21:52:07.126Z,101029.84
2019-01-24T21:56:12.079Z,101032.76
2019-01-24T22:00:20.310Z,101028.70
2019-01-24T22:04:25.298Z,101019.83
2019-01-24T22:08:34.279Z,101039.02
2019-01-24T22:12:39.182Z,101029.66
2019-01-24T22:16:44.142Z,101029.23
2019-01-24T22:20:55.633Z,101033.61
2019-01-24T22:24:56.123Z,101038.19
2019-01-24T22:29:01.039Z,101040.54
2019-01-24T22:33:06.634Z,101045.05
2019-01-24T22:37:11.571Z,101054.50
2019-01-24T22:41:16.520Z,101043.27
2019-01-24T22:45:23.841Z,101049.27
2019-01-24T22:49:28.860Z,101057.86
2019-01-24T22:53:33.788Z,101062.18
2019-01-24T22:57:38.721Z,101054.81
2019-01-24T23:01:52.624Z,101050.54
2019-01-24T23:05:57.589Z,101057.86
2019-01-24T23:10:02.544Z,101072.83
2019-01-24T23:14:07.658Z,101069.62
2019-01-24T23:18:12.625Z,101062.22
2019-01-24T23:22:17.527Z,101067.89
2019-01-24T23:26:22.500Z,101070.66
2019-01-24T23:30:27.457Z,101075.03
2019-01-24T23:34:32.790Z,101068.11
2019-01-24T23:38:37.698Z,101065.48
2019-01-24T23:42:42.636Z,101070.39
2019-01-24T23:46:47.564Z,101061.10
2019-01-24T23:50:52.511Z,101068.39
2019-01-24T23:54:57.436Z,101065.86
2019-01-24T23:59:02.371Z,101070.39
